sensor_id;sensor_type;location;lat;lon;timestamp;pressure;altitude;pressure_sealevel;temperature;humidity
6668;BME280;3370;47.712;9.082;2023-01-29T00:00:04;97933.63;;;-1.32;87.07
6668;BME280;3370;47.712;9.082;2023-01-29T00:02:35;97935.44;;;-1.27;86.47
6668;BME280;3370;47.712;9.082;2023-01-29T00:05:02;97933.63;;;-1.32;86.48
6668;BME280;3370;47.712;9.082;2023-01-29T00:07:29;97931.19;;;-1.29;86.43
6668;BME280;3370;47.712;9.082;2023-01-29T00:09:55;97934.53;;;-1.30;86.32
6668;BME280;3370;47.712;9.082;2023-01-29T00:12:21;97926.06;;;-1.32;86.35
6668;BME280;3370;47.712;9.082;2023-01-29T00:14:46;97932.03;;;-1.29;86.24
6668;BME280;3370;47.712;9.082;2023-01-29T00:17:12;97932.03;;;-1.29;86.33
6668;BME280;3370;47.712;9.082;2023-01-29T00:19:38;97930.38;;;-1.28;86.35
6668;BME280;3370;47.712;9.082;2023-01-29T00:22:04;97925.31;;;-1.28;86.02
6668;BME280;3370;47.712;9.082;2023-01-29T00:24:30;97926.13;;;-1.29;86.09
6668;BME280;3370;47.712;9.082;2023-01-29T00:26:56;97938.75;;;-1.29;85.91
6668;BME280;3370;47.712;9.082;2023-01-29T00:29:21;97934.53;;;-1.30;86.12
6668;BME280;3370;47.712;9.082;2023-01-29T00:31:47;97933.63;;;-1.32;86.10
6668;BME280;3370;47.712;9.082;2023-01-29T00:34:13;97926.13;;;-1.29;85.89
6668;BME280;3370;47.712;9.082;2023-01-29T00:36:39;97921.94;;;-1.30;85.83
6668;BME280;3370;47.712;9.082;2023-01-29T00:39:05;97917.78;;;-1.25;85.91
6668;BME280;3370;47.712;9.082;2023-01-29T00:41:36;97916.88;;;-1.29;86.01
6668;BME280;3370;47.712;9.082;2023-01-29T00:44:21;97925.31;;;-1.28;86.08
6668;BME280;3370;47.712;9.082;2023-01-29T00:47:05;97916.03;;;-1.29;86.18
6668;BME280;3370;47.712;9.082;2023-01-29T00:49:56;97907.69;;;-1.25;85.98
6668;BME280;3370;47.712;9.082;2023-01-29T00:52:22;97911.09;;;-1.23;86.00
6668;BME280;3370;47.712;9.082;2023-01-29T00:54:56;97920.31;;;-1.24;85.97
6668;BME280;3370;47.712;9.082;2023-01-29T00:57:24;97927.13;;;-1.21;85.91
6668;BME280;3370;47.712;9.082;2023-01-29T00:59:50;97928.00;;;-1.18;85.87
6668;BME280;3370;47.712;9.082;2023-01-29T01:02:16;97928.06;;;-1.13;85.63
6668;BME280;3370;47.712;9.082;2023-01-29T01:05:01;97939.91;;;-1.09;85.61
6668;BME280;3370;47.712;9.082;2023-01-29T01:07:30;97946.59;;;-1.11;85.60
6668;BME280;3370;47.712;9.082;2023-01-29T01:09:57;97945.00;;;-1.06;85.49
6668;BME280;3370;47.712;9.082;2023-01-29T01:12:41;97946.66;;;-1.08;85.56
6668;BME280;3370;47.712;9.082;2023-01-29T01:15:07;97960.22;;;-1.03;85.54
6668;BME280;3370;47.712;9.082;2023-01-29T01:17:33;97951.88;;;-0.97;85.39
6668;BME280;3370;47.712;9.082;2023-01-29T01:20:00;97944.34;;;-0.95;85.33
6668;BME280;3370;47.712;9.082;2023-01-29T01:22:26;97946.81;;;-0.97;85.36
6668;BME280;3370;47.712;9.082;2023-01-29T01:24:51;97955.34;;;-0.90;85.56
6668;BME280;3370;47.712;9.082;2023-01-29T01:27:17;97958.69;;;-0.91;85.55
6668;BME280;3370;47.712;9.082;2023-01-29T01:29:45;97953.63;;;-0.91;85.39
6668;BME280;3370;47.712;9.082;2023-01-29T01:32:11;97952.91;;;-0.84;85.07
6668;BME280;3370;47.712;9.082;2023-01-29T01:34:37;97947.00;;;-0.86;85.01
6668;BME280;3370;47.712;9.082;2023-01-29T01:37:03;97942.81;;;-0.84;84.75
6668;BME280;3370;47.712;9.082;2023-01-29T01:39:29;97946.25;;;-0.79;84.47
6668;BME280;3370;47.712;9.082;2023-01-29T01:41:55;97957.28;;;-0.74;84.12
6668;BME280;3370;47.712;9.082;2023-01-29T01:44:53;97964.84;;;-0.74;84.17
6668;BME280;3370;47.712;9.082;2023-01-29T01:47:42;97953.09;;;-0.72;83.92
6668;BME280;3370;47.712;9.082;2023-01-29T01:50:15;97961.47;;;-0.73;84.12
6668;BME280;3370;47.712;9.082;2023-01-29T01:52:52;97967.44;;;-0.68;83.98
6668;BME280;3370;47.712;9.082;2023-01-29T01:55:22;97964.09;;;-0.68;83.42
6668;BME280;3370;47.712;9.082;2023-01-29T01:57:54;97958.16;;;-0.70;83.91
6668;BME280;3370;47.712;9.082;2023-01-29T02:00:24;97966.63;;;-0.67;83.79
6668;BME280;3370;47.712;9.082;2023-01-29T02:02:50;97959.84;;;-0.69;83.75
6668;BME280;3370;47.712;9.082;2023-01-29T02:05:35;97955.66;;;-0.69;83.95
6668;BME280;3370;47.712;9.082;2023-01-29T02:09:08;97965.91;;;-0.60;83.47
6668;BME280;3370;47.712;9.082;2023-01-29T02:11:54;97969.19;;;-0.64;83.46
6668;BME280;3370;47.712;9.082;2023-01-29T02:14:20;97957.44;;;-0.62;83.58
6668;BME280;3370;47.712;9.082;2023-01-29T02:16:47;97963.31;;;-0.63;83.48
6668;BME280;3370;47.712;9.082;2023-01-29T02:19:40;97961.56;;;-0.68;84.04
6668;BME280;3370;47.712;9.082;2023-01-29T02:33:55;97954.16;;;-0.56;84.00
6668;BME280;3370;47.712;9.082;2023-01-29T02:39:49;97957.56;;;-0.52;84.12
6668;BME280;3370;47.712;9.082;2023-01-29T02:45:09;97951.69;;;-0.51;84.14
6668;BME280;3370;47.712;9.082;2023-01-29T02:47:51;97959.19;;;-0.54;84.69
6668;BME280;3370;47.712;9.082;2023-01-29T02:50:45;97954.25;;;-0.48;84.53
6668;BME280;3370;47.712;9.082;2023-01-29T02:53:30;97945.69;;;-0.56;84.78
6668;BME280;3370;47.712;9.082;2023-01-29T02:56:18;97951.59;;;-0.57;85.31
6668;BME280;3370;47.712;9.082;2023-01-29T02:58:52;97952.53;;;-0.49;84.98
6668;BME280;3370;47.712;9.082;2023-01-29T03:02:03;97942.53;;;-0.43;84.61
6668;BME280;3370;47.712;9.082;2023-01-29T03:04:35;97944.16;;;-0.47;84.49
6668;BME280;3370;47.712;9.082;2023-01-29T03:07:08;97953.41;;;-0.49;84.52
6668;BME280;3370;47.712;9.082;2023-01-29T03:09:40;97946.75;;;-0.41;83.68
6668;BME280;3370;47.712;9.082;2023-01-29T03:12:21;97950.13;;;-0.40;83.44
6668;BME280;3370;47.712;9.082;2023-01-29T03:15:02;97945.09;;;-0.42;83.34
6668;BME280;3370;47.712;9.082;2023-01-29T03:20:46;97940.03;;;-0.40;83.13
6668;BME280;3370;47.712;9.082;2023-01-29T03:23:28;97943.44;;;-0.36;82.75
6668;BME280;3370;47.712;9.082;2023-01-29T03:26:15;97954.38;;;-0.39;82.79
6668;BME280;3370;47.712;9.082;2023-01-29T03:29:02;97950.19;;;-0.37;82.39
6668;BME280;3370;47.712;9.082;2023-01-29T03:31:49;97940.91;;;-0.40;82.63
6668;BME280;3370;47.712;9.082;2023-01-29T03:34:38;97942.69;;;-0.29;82.11
6668;BME280;3370;47.712;9.082;2023-01-29T03:39:51;97952.72;;;-0.37;82.80
6668;BME280;3370;47.712;9.082;2023-01-29T03:48:24;97935.88;;;-0.35;81.93
6668;BME280;3370;47.712;9.082;2023-01-29T03:54:08;97932.53;;;-0.34;81.70
6668;BME280;3370;47.712;9.082;2023-01-29T04:02:19;97933.44;;;-0.30;80.31
6668;BME280;3370;47.712;9.082;2023-01-29T04:05:01;97924.97;;;-0.32;79.62
6668;BME280;3370;47.712;9.082;2023-01-29T04:07:30;97929.16;;;-0.33;79.22
6668;BME280;3370;47.712;9.082;2023-01-29T04:10:08;97925.81;;;-0.32;79.57
6668;BME280;3370;47.712;9.082;2023-01-29T04:12:55;97926.63;;;-0.36;79.73
6668;BME280;3370;47.712;9.082;2023-01-29T04:15:26;97923.28;;;-0.32;79.18
6668;BME280;3370;47.712;9.082;2023-01-29T04:17:55;97917.38;;;-0.34;79.09
6668;BME280;3370;47.712;9.082;2023-01-29T04:20:22;97924.06;;;-0.37;79.75
6668;BME280;3370;47.712;9.082;2023-01-29T04:22:50;97928.28;;;-0.38;80.14
6668;BME280;3370;47.712;9.082;2023-01-29T04:25:22;97927.50;;;-0.32;79.11
6668;BME280;3370;47.712;9.082;2023-01-29T04:28:27;97922.44;;;-0.34;79.78
6668;BME280;3370;47.712;9.082;2023-01-29T04:31:04;97917.53;;;-0.22;78.96
6668;BME280;3370;47.712;9.082;2023-01-29T04:44:32;97932.59;;;-0.28;77.45
6668;BME280;3370;47.712;9.082;2023-01-29T04:47:23;97925.78;;;-0.35;77.75
6668;BME280;3370;47.712;9.082;2023-01-29T04:50:02;97919.00;;;-0.37;78.24
6668;BME280;3370;47.712;9.082;2023-01-29T04:53:14;97923.09;;;-0.49;78.66
6668;BME280;3370;47.712;9.082;2023-01-29T04:55:58;97915.63;;;-0.40;78.77
6668;BME280;3370;47.712;9.082;2023-01-29T04:58:29;97924.94;;;-0.35;78.56
6668;BME280;3370;47.712;9.082;2023-01-29T05:00:57;97934.19;;;-0.36;78.80
6668;BME280;3370;47.712;9.082;2023-01-29T05:03:26;97940.13;;;-0.34;78.94
6668;BME280;3370;47.712;9.082;2023-01-29T05:05:54;97939.31;;;-0.30;77.90
6668;BME280;3370;47.712;9.082;2023-01-29T05:08:24;97938.47;;;-0.32;77.50
6668;BME280;3370;47.712;9.082;2023-01-29T05:10:53;97940.97;;;-0.32;77.60
6668;BME280;3370;47.712;9.082;2023-01-29T05:13:20;97942.66;;;-0.34;77.65
6668;BME280;3370;47.712;9.082;2023-01-29T05:15:59;97946.84;;;-0.33;77.74
6668;BME280;3370;47.712;9.082;2023-01-29T05:18:28;97946.81;;;-0.37;78.24
6668;BME280;3370;47.712;9.082;2023-01-29T05:20:56;97946.00;;;-0.35;78.47
6668;BME280;3370;47.712;9.082;2023-01-29T05:23:25;97948.59;;;-0.30;78.43
6668;BME280;3370;47.712;9.082;2023-01-29T05:25:51;97953.53;;;-0.40;78.25
6668;BME280;3370;47.712;9.082;2023-01-29T05:28:17;97960.19;;;-0.45;78.66
6668;BME280;3370;47.712;9.082;2023-01-29T05:30:52;97952.72;;;-0.37;78.67
6668;BME280;3370;47.712;9.082;2023-01-29T05:33:25;97961.16;;;-0.35;78.41
6668;BME280;3370;47.712;9.082;2023-01-29T05:35:51;97956.97;;;-0.31;77.71
6668;BME280;3370;47.712;9.082;2023-01-29T05:38:19;97962.88;;;-0.34;78.32
6668;BME280;3370;47.712;9.082;2023-01-29T05:40:45;97968.78;;;-0.32;78.30
6668;BME280;3370;47.712;9.082;2023-01-29T05:43:16;97967.09;;;-0.31;77.78
6668;BME280;3370;47.712;9.082;2023-01-29T05:45:43;97972.19;;;-0.30;77.94
6668;BME280;3370;47.712;9.082;2023-01-29T05:48:16;97972.16;;;-0.31;77.97
6668;BME280;3370;47.712;9.082;2023-01-29T05:50:42;97973.88;;;-0.30;77.68
6668;BME280;3370;47.712;9.082;2023-01-29T05:53:08;97974.75;;;-0.27;77.76
6668;BME280;3370;47.712;9.082;2023-01-29T05:55:34;97974.75;;;-0.27;77.80
6668;BME280;3370;47.712;9.082;2023-01-29T05:57:59;97976.41;;;-0.29;78.21
6668;BME280;3370;47.712;9.082;2023-01-29T06:00:25;97978.94;;;-0.27;78.00
6668;BME280;3370;47.712;9.082;2023-01-29T06:02:51;97980.66;;;-0.26;77.82
6668;BME280;3370;47.712;9.082;2023-01-29T06:05:17;97986.47;;;-0.32;78.21
6668;BME280;3370;47.712;9.082;2023-01-29T06:07:45;97977.28;;;-0.27;78.12
6668;BME280;3370;47.712;9.082;2023-01-29T06:10:14;97973.94;;;-0.24;78.33
6668;BME280;3370;47.712;9.082;2023-01-29T06:12:42;97975.63;;;-0.23;78.38
6668;BME280;3370;47.712;9.082;2023-01-29T06:15:09;97982.31;;;-0.28;78.27
6668;BME280;3370;47.712;9.082;2023-01-29T06:17:35;97986.53;;;-0.29;78.82
6668;BME280;3370;47.712;9.082;2023-01-29T06:20:03;97985.69;;;-0.28;79.21
6668;BME280;3370;47.712;9.082;2023-01-29T06:22:29;97983.09;;;-0.34;78.96
6668;BME280;3370;47.712;9.082;2023-01-29T06:24:55;97976.41;;;-0.29;78.85
6668;BME280;3370;47.712;9.082;2023-01-29T06:27:23;97989.88;;;-0.30;78.51
6668;BME280;3370;47.712;9.082;2023-01-29T06:29:49;97993.19;;;-0.34;78.82
6668;BME280;3370;47.712;9.082;2023-01-29T06:32:15;97996.59;;;-0.32;78.21
6668;BME280;3370;47.712;9.082;2023-01-29T06:34:40;97999.84;;;-0.39;78.62
6668;BME280;3370;47.712;9.082;2023-01-29T06:37:06;97993.25;;;-0.28;78.36
6668;BME280;3370;47.712;9.082;2023-01-29T06:39:33;98005.06;;;-0.28;77.76
6668;BME280;3370;47.712;9.082;2023-01-29T06:41:59;97999.94;;;-0.34;78.15
6668;BME280;3370;47.712;9.082;2023-01-29T06:44:24;98011.81;;;-0.29;77.93
6668;BME280;3370;47.712;9.082;2023-01-29T06:46:51;98011.00;;;-0.25;77.70
6668;BME280;3370;47.712;9.082;2023-01-29T06:49:17;98008.47;;;-0.25;77.25
6668;BME280;3370;47.712;9.082;2023-01-29T06:51:42;97999.19;;;-0.26;77.16
6668;BME280;3370;47.712;9.082;2023-01-29T06:54:09;98002.50;;;-0.30;77.22
6668;BME280;3370;47.712;9.082;2023-01-29T06:56:35;97999.16;;;-0.29;76.70
6668;BME280;3370;47.712;9.082;2023-01-29T06:59:01;98001.69;;;-0.29;77.19
6668;BME280;3370;47.712;9.082;2023-01-29T07:01:27;97992.41;;;-0.28;77.00
6668;BME280;3370;47.712;9.082;2023-01-29T07:03:53;97982.38;;;-0.22;76.78
6668;BME280;3370;47.712;9.082;2023-01-29T07:06:19;97983.19;;;-0.25;76.42
6668;BME280;3370;47.712;9.082;2023-01-29T07:08:45;97974.69;;;-0.30;76.82
6668;BME280;3370;47.712;9.082;2023-01-29T07:11:11;97969.69;;;-0.27;77.26
6668;BME280;3370;47.712;9.082;2023-01-29T07:13:37;97968.84;;;-0.26;77.31
6668;BME280;3370;47.712;9.082;2023-01-29T07:16:04;97972.25;;;-0.22;76.80
6668;BME280;3370;47.712;9.082;2023-01-29T07:18:31;97973.13;;;-0.22;76.73
6668;BME280;3370;47.712;9.082;2023-01-29T07:20:57;97974.00;;;-0.16;76.71
6668;BME280;3370;47.712;9.082;2023-01-29T07:23:23;97978.19;;;-0.22;76.45
6668;BME280;3370;47.712;9.082;2023-01-29T07:25:50;97983.25;;;-0.20;76.92
6668;BME280;3370;47.712;9.082;2023-01-29T07:28:19;97982.50;;;-0.14;76.44
6668;BME280;3370;47.712;9.082;2023-01-29T07:30:45;97978.19;;;-0.22;76.49
6668;BME280;3370;47.712;9.082;2023-01-29T07:33:11;97984.88;;;-0.24;77.08
6668;BME280;3370;47.712;9.082;2023-01-29T07:35:39;97995.00;;;-0.24;77.65
6668;BME280;3370;47.712;9.082;2023-01-29T07:38:07;97986.63;;;-0.20;77.54
6668;BME280;3370;47.712;9.082;2023-01-29T07:40:33;97990.09;;;-0.14;76.88
6668;BME280;3370;47.712;9.082;2023-01-29T07:43:01;97982.47;;;-0.16;76.76
6668;BME280;3370;47.712;9.082;2023-01-29T07:45:29;97985.84;;;-0.15;76.72
6668;BME280;3370;47.712;9.082;2023-01-29T07:47:55;97995.13;;;-0.14;76.50
6668;BME280;3370;47.712;9.082;2023-01-29T07:50:23;97990.94;;;-0.12;76.26
6668;BME280;3370;47.712;9.082;2023-01-29T07:52:49;97996.88;;;-0.10;76.31
6668;BME280;3370;47.712;9.082;2023-01-29T07:55:16;97990.13;;;-0.08;76.16
6668;BME280;3370;47.712;9.082;2023-01-29T07:57:43;98000.25;;;-0.08;76.04
6668;BME280;3370;47.712;9.082;2023-01-29T08:00:09;97991.88;;;-0.04;75.69
6668;BME280;3370;47.712;9.082;2023-01-29T08:02:36;97979.22;;;-0.04;75.90
6668;BME280;3370;47.712;9.082;2023-01-29T08:05:03;97980.97;;;0.02;76.03
6668;BME280;3370;47.712;9.082;2023-01-29T08:07:29;97987.75;;;0.04;75.93
6668;BME280;3370;47.712;9.082;2023-01-29T08:09:54;97994.50;;;0.05;75.96
6668;BME280;3370;47.712;9.082;2023-01-29T08:12:20;97992.84;;;0.06;76.05
6668;BME280;3370;47.712;9.082;2023-01-29T08:14:46;97997.91;;;0.09;76.26
6668;BME280;3370;47.712;9.082;2023-01-29T08:17:13;97992.88;;;0.09;76.76
6668;BME280;3370;47.712;9.082;2023-01-29T08:19:38;97992.09;;;0.14;76.25
6668;BME280;3370;47.712;9.082;2023-01-29T08:22:05;98003.09;;;0.16;76.00
6668;BME280;3370;47.712;9.082;2023-01-29T08:24:31;97994.63;;;0.16;75.99
6668;BME280;3370;47.712;9.082;2023-01-29T08:26:57;98003.94;;;0.18;75.57
6668;BME280;3370;47.712;9.082;2023-01-29T08:29:22;97999.69;;;0.16;75.54
6668;BME280;3370;47.712;9.082;2023-01-29T08:31:48;97997.19;;;0.17;75.28
6668;BME280;3370;47.712;9.082;2023-01-29T08:34:14;97998.03;;;0.19;75.36
6668;BME280;3370;47.712;9.082;2023-01-29T08:36:40;98003.97;;;0.22;75.82
6668;BME280;3370;47.712;9.082;2023-01-29T08:39:06;98006.50;;;0.22;75.26
6668;BME280;3370;47.712;9.082;2023-01-29T08:41:31;97993.00;;;0.21;75.47
6668;BME280;3370;47.712;9.082;2023-01-29T08:43:57;97993.06;;;0.24;75.12
6668;BME280;3370;47.712;9.082;2023-01-29T08:46:25;97997.28;;;0.27;74.90
6668;BME280;3370;47.712;9.082;2023-01-29T08:48:50;98008.31;;;0.33;74.82
6668;BME280;3370;47.712;9.082;2023-01-29T08:51:16;98010.88;;;0.38;74.52
6668;BME280;3370;47.712;9.082;2023-01-29T08:53:43;98010.97;;;0.44;73.75
6668;BME280;3370;47.712;9.082;2023-01-29T08:56:08;98004.28;;;0.52;73.00
6668;BME280;3370;47.712;9.082;2023-01-29T08:58:34;98008.59;;;0.58;73.28
6668;BME280;3370;47.712;9.082;2023-01-29T09:01:10;98009.44;;;0.62;73.27
6668;BME280;3370;47.712;9.082;2023-01-29T09:03:36;98015.41;;;0.67;72.31
6668;BME280;3370;47.712;9.082;2023-01-29T09:06:07;98016.34;;;0.75;71.90
6668;BME280;3370;47.712;9.082;2023-01-29T09:08:33;98015.59;;;0.84;72.08
6668;BME280;3370;47.712;9.082;2023-01-29T09:10:59;98021.53;;;0.87;72.38
6668;BME280;3370;47.712;9.082;2023-01-29T09:13:25;98024.84;;;0.83;72.74
6668;BME280;3370;47.712;9.082;2023-01-29T09:15:51;98032.44;;;0.83;72.48
6668;BME280;3370;47.712;9.082;2023-01-29T09:18:18;98033.25;;;0.79;72.24
6668;BME280;3370;47.712;9.082;2023-01-29T09:20:47;98037.47;;;0.79;72.96
6668;BME280;3370;47.712;9.082;2023-01-29T09:23:12;98040.81;;;0.73;73.36
6668;BME280;3370;47.712;9.082;2023-01-29T09:25:38;98031.53;;;0.75;73.50
6668;BME280;3370;47.712;9.082;2023-01-29T09:28:04;98028.16;;;0.73;73.76
6668;BME280;3370;47.712;9.082;2023-01-29T09:30:30;98029.03;;;0.80;74.00
6668;BME280;3370;47.712;9.082;2023-01-29T09:32:59;98036.69;;;0.84;73.75
6668;BME280;3370;47.712;9.082;2023-01-29T09:35:25;98035.06;;;0.91;73.26
6668;BME280;3370;47.712;9.082;2023-01-29T09:37:51;98038.47;;;0.94;72.09
6668;BME280;3370;47.712;9.082;2023-01-29T09:40:29;98034.25;;;0.95;72.63
6668;BME280;3370;47.712;9.082;2023-01-29T09:43:14;98041.06;;;1.01;71.70
6668;BME280;3370;47.712;9.082;2023-01-29T09:46:05;98036.00;;;1.02;72.30
6668;BME280;3370;47.712;9.082;2023-01-29T09:48:33;98041.91;;;1.03;72.67
6668;BME280;3370;47.712;9.082;2023-01-29T09:51:06;98038.63;;;1.13;72.06
6668;BME280;3370;47.712;9.082;2023-01-29T09:53:44;98044.53;;;1.12;72.45
6668;BME280;3370;47.712;9.082;2023-01-29T09:56:18;98040.28;;;1.08;72.04
6668;BME280;3370;47.712;9.082;2023-01-29T09:58:44;98047.91;;;1.11;71.89
6668;BME280;3370;47.712;9.082;2023-01-29T10:01:49;98045.38;;;1.11;72.24
6668;BME280;3370;47.712;9.082;2023-01-29T10:05:02;98058.06;;;1.12;71.93
6668;BME280;3370;47.712;9.082;2023-01-29T10:08:02;98056.28;;;1.07;71.34
6668;BME280;3370;47.712;9.082;2023-01-29T10:10:58;98062.22;;;1.06;72.19
6668;BME280;3370;47.712;9.082;2023-01-29T10:13:51;98058.00;;;1.08;71.88
6668;BME280;3370;47.712;9.082;2023-01-29T10:19:35;98064.75;;;1.07;71.49
6668;BME280;3370;47.712;9.082;2023-01-29T10:22:44;98063.97;;;1.13;71.77
6668;BME280;3370;47.712;9.082;2023-01-29T10:25:18;98067.34;;;1.15;71.62
6668;BME280;3370;47.712;9.082;2023-01-29T10:27:53;98071.59;;;1.16;71.71
6668;BME280;3370;47.712;9.082;2023-01-29T10:30:38;98069.06;;;1.16;71.44
6668;BME280;3370;47.712;9.082;2023-01-29T10:33:13;98055.53;;;1.17;71.17
6668;BME280;3370;47.712;9.082;2023-01-29T10:35:45;98057.34;;;1.30;69.91
6668;BME280;3370;47.712;9.082;2023-01-29T10:38:54;98058.13;;;1.23;70.34
6668;BME280;3370;47.712;9.082;2023-01-29T10:45:01;98048.88;;;1.28;70.78
6668;BME280;3370;47.712;9.082;2023-01-29T10:51:05;98035.44;;;1.39;70.20
6668;BME280;3370;47.712;9.082;2023-01-29T10:54:21;98036.28;;;1.38;70.23
6668;BME280;3370;47.712;9.082;2023-01-29T11:00:21;98042.16;;;1.33;70.46
6668;BME280;3370;47.712;9.082;2023-01-29T11:02:49;98039.59;;;1.30;70.29
6668;BME280;3370;47.712;9.082;2023-01-29T11:05:30;98037.91;;;1.29;70.43
6668;BME280;3370;47.712;9.082;2023-01-29T11:11:16;98035.47;;;1.45;69.72
6668;BME280;3370;47.712;9.082;2023-01-29T11:13:57;98027.84;;;1.39;69.84
6668;BME280;3370;47.712;9.082;2023-01-29T11:16:27;98018.53;;;1.38;70.34
6668;BME280;3370;47.712;9.082;2023-01-29T11:18:59;98017.72;;;1.45;70.45
6668;BME280;3370;47.712;9.082;2023-01-29T11:21:28;98012.59;;;1.34;71.29
6668;BME280;3370;47.712;9.082;2023-01-29T11:24:15;98016.78;;;1.27;71.26
6668;BME280;3370;47.712;9.082;2023-01-29T11:26:44;98012.53;;;1.26;71.38
6668;BME280;3370;47.712;9.082;2023-01-29T11:29:40;98004.09;;;1.24;72.11
6668;BME280;3370;47.712;9.082;2023-01-29T11:32:25;98002.44;;;1.29;71.84
6668;BME280;3370;47.712;9.082;2023-01-29T11:35:21;98001.53;;;1.21;70.70
6668;BME280;3370;47.712;9.082;2023-01-29T11:37:48;97998.19;;;1.25;69.40
6668;BME280;3370;47.712;9.082;2023-01-29T11:42:46;98003.16;;;1.13;69.67
6668;BME280;3370;47.712;9.082;2023-01-29T11:47:49;97994.81;;;1.26;70.86
6668;BME280;3370;47.712;9.082;2023-01-29T11:50:26;97988.16;;;1.41;70.13
6668;BME280;3370;47.712;9.082;2023-01-29T11:52:53;97984.84;;;1.51;69.17
6668;BME280;3370;47.712;9.082;2023-01-29T11:55:22;97987.41;;;1.57;69.74
6668;BME280;3370;47.712;9.082;2023-01-29T11:58:05;97989.13;;;1.60;69.95
6668;BME280;3370;47.712;9.082;2023-01-29T12:00:39;97985.78;;;1.67;70.24
6668;BME280;3370;47.712;9.082;2023-01-29T12:03:27;97988.31;;;1.70;70.99
6668;BME280;3370;47.712;9.082;2023-01-29T12:08:24;97996.78;;;1.73;69.98
6668;BME280;3370;47.712;9.082;2023-01-29T12:10:51;97983.28;;;1.75;69.59
6668;BME280;3370;47.712;9.082;2023-01-29T12:13:31;97981.59;;;1.77;69.10
6668;BME280;3370;47.712;9.082;2023-01-29T12:16:32;97985.84;;;1.84;68.80
6668;BME280;3370;47.712;9.082;2023-01-29T12:19:18;97975.72;;;1.84;68.59
6668;BME280;3370;47.712;9.082;2023-01-29T12:22:20;97973.19;;;1.91;68.90
6668;BME280;3370;47.712;9.082;2023-01-29T12:24:59;97975.78;;;2.01;67.97
6668;BME280;3370;47.712;9.082;2023-01-29T12:27:59;97968.16;;;1.99;67.95
6668;BME280;3370;47.712;9.082;2023-01-29T12:34:04;97978.25;;;1.84;67.33
6668;BME280;3370;47.712;9.082;2023-01-29T12:36:50;97986.56;;;1.58;67.07
6668;BME280;3370;47.712;9.082;2023-01-29T12:39:19;97982.31;;;1.54;67.57
6668;BME280;3370;47.712;9.082;2023-01-29T12:42:04;97977.13;;;1.32;67.67
6668;BME280;3370;47.712;9.082;2023-01-29T12:45:03;97977.88;;;1.19;68.32
6668;BME280;3370;47.712;9.082;2023-01-29T12:47:34;97973.75;;;1.35;68.16
6668;BME280;3370;47.712;9.082;2023-01-29T12:50:13;97969.53;;;1.37;69.32
6668;BME280;3370;47.712;9.082;2023-01-29T12:52:51;97962.03;;;1.56;68.32
6668;BME280;3370;47.712;9.082;2023-01-29T12:58:03;97960.31;;;1.45;68.65
6668;BME280;3370;47.712;9.082;2023-01-29T13:00:38;97949.38;;;1.57;68.86
6668;BME280;3370;47.712;9.082;2023-01-29T13:05:55;97945.13;;;1.50;67.93
6668;BME280;3370;47.712;9.082;2023-01-29T13:08:44;97934.97;;;1.50;68.01
6668;BME280;3370;47.712;9.082;2023-01-29T13:11:19;97923.03;;;1.32;68.16
6668;BME280;3370;47.712;9.082;2023-01-29T13:13:57;97922.09;;;1.13;69.60
6668;BME280;3370;47.712;9.082;2023-01-29T13:16:34;97923.50;;;0.75;69.69
6668;BME280;3370;47.712;9.082;2023-01-29T13:19:18;97928.38;;;0.49;70.51
6668;BME280;3370;47.712;9.082;2023-01-29T13:21:46;97936.94;;;0.67;71.10
6668;BME280;3370;47.712;9.082;2023-01-29T13:24:19;97935.38;;;0.78;70.68
6668;BME280;3370;47.712;9.082;2023-01-29T13:26:47;97932.19;;;1.04;70.11
6668;BME280;3370;47.712;9.082;2023-01-29T13:29:32;97926.38;;;1.22;68.95
6668;BME280;3370;47.712;9.082;2023-01-29T13:32:01;97920.16;;;0.80;70.04
6668;BME280;3370;47.712;9.082;2023-01-29T13:34:43;97925.84;;;0.54;70.16
6668;BME280;3370;47.712;9.082;2023-01-29T13:37:24;97922.66;;;0.75;70.18
6668;BME280;3370;47.712;9.082;2023-01-29T13:39:54;97923.72;;;1.05;69.63
6668;BME280;3370;47.712;9.082;2023-01-29T13:42:38;97925.38;;;1.00;68.63
6668;BME280;3370;47.712;9.082;2023-01-29T13:45:08;97920.94;;;0.69;69.31
6668;BME280;3370;47.712;9.082;2023-01-29T13:47:41;97917.59;;;0.73;70.35
6668;BME280;3370;47.712;9.082;2023-01-29T13:50:41;97921.81;;;0.71;69.69
6668;BME280;3370;47.712;9.082;2023-01-29T13:53:03;97911.56;;;0.59;69.75
6668;BME280;3370;47.712;9.082;2023-01-29T13:55:38;97910.72;;;0.59;69.95
6668;BME280;3370;47.712;9.082;2023-01-29T13:58:15;97906.69;;;0.82;70.19
6668;BME280;3370;47.712;9.082;2023-01-29T14:05:41;97900.88;;;0.97;68.98
6668;BME280;3370;47.712;9.082;2023-01-29T14:10:42;97899.66;;;0.47;70.44
6668;BME280;3370;47.712;9.082;2023-01-29T14:15:45;97897.31;;;0.70;70.68
6668;BME280;3370;47.712;9.082;2023-01-29T14:18:32;97890.47;;;0.59;70.13
6668;BME280;3370;47.712;9.082;2023-01-29T14:21:16;97883.00;;;0.71;70.80
6668;BME280;3370;47.712;9.082;2023-01-29T14:23:48;97880.53;;;0.82;69.87
6668;BME280;3370;47.712;9.082;2023-01-29T14:31:56;97869.25;;;0.41;71.38
6668;BME280;3370;47.712;9.082;2023-01-29T14:34:40;97868.41;;;0.45;71.07
6668;BME280;3370;47.712;9.082;2023-01-29T14:42:31;97864.19;;;0.41;70.91
6668;BME280;3370;47.712;9.082;2023-01-29T14:45:00;97860.94;;;0.54;70.45
6668;BME280;3370;47.712;9.082;2023-01-29T14:50:36;97849.13;;;0.55;70.51
6668;BME280;3370;47.712;9.082;2023-01-29T14:53:24;97856.75;;;0.58;70.63
6668;BME280;3370;47.712;9.082;2023-01-29T14:56:00;97859.25;;;0.60;71.26
6668;BME280;3370;47.712;9.082;2023-01-29T14:58:44;97858.44;;;0.61;71.21
6668;BME280;3370;47.712;9.082;2023-01-29T15:01:25;97859.16;;;0.49;70.95
6668;BME280;3370;47.712;9.082;2023-01-29T15:04:05;97861.56;;;0.32;72.21
6668;BME280;3370;47.712;9.082;2023-01-29T15:06:52;97867.50;;;0.34;72.59
6668;BME280;3370;47.712;9.082;2023-01-29T15:15:41;97875.06;;;0.32;73.53
6668;BME280;3370;47.712;9.082;2023-01-29T15:18:31;97875.03;;;0.26;73.65
6668;BME280;3370;47.712;9.082;2023-01-29T15:21:11;97890.88;;;0.08;74.57
6668;BME280;3370;47.712;9.082;2023-01-29T15:23:38;97885.81;;;0.08;73.90
6668;BME280;3370;47.712;9.082;2023-01-29T15:26:08;97887.47;;;0.06;73.75
6668;BME280;3370;47.712;9.082;2023-01-29T15:28:37;97868.91;;;0.07;74.21
6668;BME280;3370;47.712;9.082;2023-01-29T15:31:10;97882.47;;;0.09;74.01
6668;BME280;3370;47.712;9.082;2023-01-29T15:33:37;97880.78;;;0.11;74.29
6668;BME280;3370;47.712;9.082;2023-01-29T15:36:07;97875.66;;;0.05;73.99
6668;BME280;3370;47.712;9.082;2023-01-29T15:38:40;97872.31;;;0.06;73.96
6668;BME280;3370;47.712;9.082;2023-01-29T15:41:19;97880.81;;;0.16;73.99
6668;BME280;3370;47.712;9.082;2023-01-29T15:43:55;97880.00;;;0.17;74.15
6668;BME280;3370;47.712;9.082;2023-01-29T15:46:32;97879.13;;;0.13;74.16
6668;BME280;3370;47.712;9.082;2023-01-29T15:49:04;97879.19;;;0.23;74.06
6668;BME280;3370;47.712;9.082;2023-01-29T15:51:31;97881.75;;;0.26;73.66
6668;BME280;3370;47.712;9.082;2023-01-29T15:54:11;97885.91;;;0.19;74.11